首页
METAR-TAF:

METAR-TAF

机场 :

门罗, 北卡罗来纳州, 美国

纬度: 35-01-01N, 经度: 080-37-14W, 海拔: 207米

当前天气观测

该预报发布于5分钟前的14:10 UTC
风速4节,风向南转西南
温度 26°C
湿度 79%
气压 1018 hPa
能見度: 9.7公里
少量云层高于1000英尺
散云层高于1600英尺
阴天层高于2100英尺

METAR: KEQY 201410Z AUTO 21004KT 6SM HZ FEW010 SCT016 OVC021 26/22 A3006 RMK AO2 T02560222

时间: 10:15 (14:15 UTC)


TAF: 丢失

超过4000个机场的气象观测和天气预报(METAR&TAF报告)。

可查询的气象台以黄色和红色小点在地图上表示。

将鼠标移到小点上方,可查看气象台名称。

然后点击查看天气观测和预报。

如需切换地图:点击带黑十字的绿色按钮放大地图;点击带横线的绿色按钮缩小地图;或者点击绿色箭头查看邻近地区的地图。


METAR-TAF: